KAPAKPAO

Guest
Details From KAPA - CENTENNIAL
To KPAO - Palo Alto
Flight Number -
Tags decoded
Created
Modified
Stats Distance 838 nm / 1,553 km
Max Altitude 0 ft / 0 m
Waypoints 6
Social Downloads 3
Likes 0
Share VATSIM

Download

Looking for another format? Having issues loading an existing format? Contact us
Advertisement - Login to hide

Notes

Requested: KAPA CONNR DBL MOD LICKE KPAO

Route

KAPA CONNR DBL MOD LICKE KPAO

ID Type Via Altitude Latitude Longitude Leg Dist Tot Dist Heading (true) Name
O KAPA APT - 0 ft / 0 m 39.57012˚ -104.84813˚ - 0 nm - CENTENNIAL
CONNR FIX - 0 ft / 0 m 39.69906˚ -105.66578˚ 38 nm 38 nm 282° / 281° -
DBL VOR - 0 ft / 0 m 39.43933˚ -106.89467˚ 58 nm 97 nm 255° / 254° RED TABLE VOR-DME
MOD VOR - 0 ft / 0 m 37.62736˚ -120.95786˚ 668 nm 766 nm 265° / 256° MODESTO VOR-DME
LICKE FIX - 0 ft / 0 m 37.15991˚ -121.69816˚ 45 nm 811 nm 232° / 231° -
O KPAO APT - 0 ft / 0 m 37.46089˚ -122.11482˚ 26 nm 838 nm 312° / 312° Palo Alto

Altitude Profile

Advertisement - Login to hide

Weather


0- 5 10 15 20 25 30 35+ Temperature / ° C

Clouds and Precipitation
Forecast for 2017-12-15 06:00 UTC. Updated 2 hours ago

Ground ~20,000 ft ~40,000 ft Winds

KAPA

Details ICAO KAPA (APA)
Name CENTENNIAL
Region United States
Timezone America/Denver (UTC-7.0)
Stats Elevation 5,883 ft / 1,793 m (AMSL)
Location 39.570116° -104.848132°
Runways 3
Magnetic Variation 8.128° E

METAR

KAPA 150253Z 19004KT 10SM CLR M04/M08 A3024 RMK AO2 SLP288 T10441078 51003

Decode

TAF

KAPA 142324Z 1500/1524 13006KT P6SM SCT050 BKN090 FM150100 15006KT P6SM FEW050 SCT100 FM150500 19008KT P6SM FEW220 FM151600 23009KT P6SM FEW120 SCT220

Decode

Departure Runways

ID Width Length Bearing (true) Bearing (mag) Surface Threshold Offset Overrun Length
10 75 ft / 23 m 4,791 ft / 1,460 m 111.02° 102.89° Asphalt 0 ft / 0 m 0 ft / 0 m
17L 100 ft / 30 m 10,017 ft / 3,053 m 177.97° 169.84° Asphalt 0 ft / 0 m 0 ft / 0 m
17R 77 ft / 23 m 7,014 ft / 2,138 m 177.96° 169.83° Asphalt 0 ft / 0 m 0 ft / 0 m
28 75 ft / 23 m 4,791 ft / 1,460 m 291.03° 282.90° Asphalt 0 ft / 0 m 0 ft / 0 m
35L 77 ft / 23 m 7,014 ft / 2,138 m 357.96° 349.83° Asphalt 0 ft / 0 m 0 ft / 0 m
35R 100 ft / 30 m 10,017 ft / 3,053 m 357.97° 349.84° Asphalt 0 ft / 0 m 0 ft / 0 m

KPAO

Details ICAO KPAO (PAO)
Name Palo Alto
Region United States
Timezone America/Los_Angeles (UTC-8.0)
Stats Elevation 4 ft / 1 m (AMSL)
Location 37.460889° -122.114823°
Runways 1
Magnetic Variation 13.390° E

METAR

KPAO 150247Z 00000KT 10SM SKC 09/05 A3013

Decode

TAF

Not found

Destination Runways

ID Width Length Bearing (true) Bearing (mag) Surface Threshold Offset Overrun Length
31 75 ft / 23 m 2,659 ft / 810 m 321.81° 308.42° Asphalt 213 ft / 65 m 0 ft / 0 m
XXX 75 ft / 23 m 2,659 ft / 810 m 141.80° 128.41° Asphalt 0 ft / 0 m 197 ft / 60 m